Terminal Aerodrome Forecast
Issued by NWS Charleston, WV

Home | Current Version | Previous Version | Text Only | Print | Product List | Glossary On
Versions: 1 2 3 4 5 6 7 8 9 10 11 12 13 14 15 16 17 18 19 20 21 22 23 24 25 26 27 28 29 30 31 32
000
FTUS41 KRLX 250540
TAFHTS
TAF
KHTS 250540Z 2506/2606 17009G18KT P6SM BKN080
     FM250630 22012G20KT 2SM TSRA OVC040CB
      TEMPO 2507/2508 22019G40KT 2SM +TSRA OVC025CB
     FM250800 25012G22KT 3SM -SHRA OVC030
     FM251000 25011G18KT 6SM -SHRA OVC030
     FM251100 25006KT P6SM BKN050
     FM251200 26012G24KT P6SM OVC050=

USA.gov is the U.S. government's official web portal to all federal, state and local government web resources and services.